메인 페이지
METAR-TAF:

METAR-TAF

공항 :

Southwest Florida International Airport

Fort Myers, 플로리다, 미국

위도: 26-31-37N, 경도: 081-45-59W, 고도: 9m

현재 날씨관측

예보는 34분 전, 21:53시(UTC)에 발표되었습니다.
서남서15kt
온도 28°C
습도 66%
기압 1009 hPa
시정: 16.1km
맑음

METAR: KRSW 312153Z 25015KT 10SM CLR 28/21 A2981 RMK AO2 SLP091 T02780206

시각: 18:27 (22:27 UTC)

예보

예보는 1 시간 2분 전, 21:25시(UTC)에 발표되었습니다.
예보 대상 시간: 31일 21시부터 01일 18시까지 (UTC)
서남서15kt, 순간 최대 풍속 20kt
시정: 10km
고도 2500ft 상공 구름 보통
고도 25000ft 상공 흐림
01일 0400시부터 (UTC)
서남서13kt, 순간 최대 풍속 18kt
시정: 9.7km
고도 1500ft 상공 구름 보통, 적란운.
고도 3000ft 상공 구름 많음
고도 10000ft 상공 흐림
소나기, 시계 내 뇌우
01일 0900시부터 (UTC)
서북서10kt, 순간 최대 풍속 15kt
시정: 10km
고도 2000ft 상공 구름 보통
고도 4000ft 상공 구름 많음
01일 1500시부터 (UTC)
북북서10kt, 순간 최대 풍속 15kt
시정: 10km
고도 2000ft 상공 구름 조금

TAF: KRSW 312125Z 3121/0118 24015G20KT P6SM SCT025 OVC250 FM010400 25013G18KT 6SM SHRA VCTS SCT015CB BKN030 OVC100 FM010900 29010G15KT P6SM SCT020 BKN040 FM011500 34010G15KT P6SM FEW020

4,000개 이상의 공항 관측 자료 및 예보 (METAR 및 TAF 보고).

지도상에서 검색 가능한 기상관측소가 노란 점과 빨간 점으로 표시되어 있습니다.

기상관측소 명을 보려면 표시 위로 마우스를 이동하세요.

날씨 관측과 예보를 보려면 클릭하세요.

지도 변경 : 확대하려면 엑스 표시가 있는 녹색 버튼, 축소하려면 빼기 표시가 있는 녹색 버튼, 다음 페이지의 지도를 보려면 녹색 화살표를 클릭하세요.


METAR-TAF: